Time;durP1;ratioP1;P1;durP2;ratioP2;P2;SDS_P1;SDS_P2;PMS_P1;PMS_P2;Temp;Humidity;BMP_temperature;BMP_pressure;BME280_temperature;BME280_humidity;BME280_pressure;Samples;Min_cycle;Max_cycle;Signal;HPM_P1;HPM_P2
2024/03/28 00:01:09;;;;;;;1.80;1.58;;;9.30;84.80;;;;;;5070523;28;20557;-64
2024/03/28 00:03:35;;;;;;;2.10;1.60;;;9.30;84.90;;;;;;5068517;28;21238;-62
2024/03/28 00:06:02;;;;;;;1.65;1.50;;;9.30;85.00;;;;;;5068464;28;20039;-64
2024/03/28 00:08:28;;;;;;;2.03;1.48;;;9.30;85.00;;;;;;5072520;28;20075;-64
2024/03/28 00:10:54;;;;;;;2.53;1.63;;;9.30;85.00;;;;;;5070383;28;20060;-63
2024/03/28 00:13:21;;;;;;;1.92;1.50;;;9.30;84.90;;;;;;5071891;28;21551;-63
2024/03/28 00:16:06;;;;;;;1.88;1.52;;;9.30;85.00;;;;;;5073683;28;20564;-64
2024/03/28 00:18:32;;;;;;;1.85;1.40;;;9.30;85.00;;;;;;5067447;28;20039;-64
2024/03/28 00:20:59;;;;;;;1.52;1.40;;;9.30;84.90;;;;;;5068582;28;20035;-65
2024/03/28 00:23:25;;;;;;;1.50;1.40;;;9.40;84.90;;;;;;5071851;28;20150;-65
2024/03/28 00:25:56;;;;;;;2.58;1.80;;;9.30;84.80;;;;;;5070578;28;20455;-64
2024/03/28 00:28:22;;;;;;;1.90;1.70;;;9.30;84.80;;;;;;5072301;28;20024;-65
2024/03/28 00:30:49;;;;;;;3.42;1.73;;;9.30;84.80;;;;;;5069374;28;20085;-65
2024/03/28 00:33:15;;;;;;;1.73;1.50;;;9.30;84.90;;;;;;5067873;28;20024;-65
2024/03/28 00:35:42;;;;;;;1.90;1.67;;;9.30;84.90;;;;;;5079686;28;20032;-65
2024/03/28 00:38:08;;;;;;;2.42;1.85;;;9.30;84.90;;;;;;5072469;28;20594;-66
2024/03/28 00:40:34;;;;;;;1.67;1.48;;;9.30;84.80;;;;;;5071927;28;20020;-65
2024/03/28 00:42:59;;;;;;;2.20;1.80;;;9.30;84.80;;;;;;5073267;28;20032;-64
2024/03/28 00:45:25;;;;;;;2.60;2.00;;;9.30;84.90;;;;;;5070715;28;20031;-63
2024/03/28 00:47:50;;;;;;;2.40;2.17;;;9.20;84.90;;;;;;5072842;28;20540;-64
2024/03/28 00:50:16;;;;;;;3.42;2.20;;;9.20;85.00;;;;;;5068743;28;20013;-64
2024/03/28 00:52:41;;;;;;;2.58;2.10;;;9.20;85.00;;;;;;5068473;28;20039;-65
2024/03/28 00:55:07;;;;;;;2.60;2.10;;;9.30;85.00;;;;;;5070835;28;20021;-65
2024/03/28 00:57:32;;;;;;;2.60;2.10;;;9.20;84.90;;;;;;5064991;28;20028;-64
2024/03/28 00:59:58;;;;;;;2.65;2.00;;;9.20;85.00;;;;;;5071227;28;20020;-65
2024/03/28 01:02:23;;;;;;;3.85;1.85;;;9.20;85.00;;;;;;5066882;28;20372;-65
2024/03/28 01:04:52;;;;;;;2.03;1.73;;;9.20;85.10;;;;;;5069141;28;20032;-65
2024/03/28 01:07:18;;;;;;;3.17;2.22;;;9.10;85.10;;;;;;5067649;28;20714;-65
2024/03/28 01:09:43;;;;;;;2.00;1.80;;;9.10;85.10;;;;;;5070042;28;20038;-65
2024/03/28 01:12:09;;;;;;;1.88;1.60;;;9.10;85.10;;;;;;5070613;28;20031;-63
2024/03/28 01:14:34;;;;;;;2.35;1.77;;;9.20;85.00;;;;;;5068817;28;20034;-65
2024/03/28 01:17:00;;;;;;;1.88;1.70;;;9.20;85.00;;;;;;5069595;28;20031;-65
2024/03/28 01:19:25;;;;;;;2.75;1.70;;;9.20;84.80;;;;;;5067745;28;20024;-65
2024/03/28 01:21:51;;;;;;;2.20;1.70;;;9.20;84.80;;;;;;5067706;28;20035;-63
2024/03/28 01:24:17;;;;;;;2.22;1.80;;;9.20;84.80;;;;;;5063816;28;20135;-65
2024/03/28 01:26:44;;;;;;;2.00;1.80;;;9.20;84.90;;;;;;5066301;28;20120;-63
2024/03/28 01:29:10;;;;;;;2.58;1.80;;;9.20;84.90;;;;;;5065994;28;20020;-64
2024/03/28 01:31:36;;;;;;;2.08;1.75;;;9.20;85.00;;;;;;5069468;28;20030;-65
2024/03/28 01:34:01;;;;;;;2.00;1.80;;;9.20;85.00;;;;;;5068028;28;20032;-64
2024/03/28 01:36:28;;;;;;;2.70;1.80;;;9.10;85.00;;;;;;5066454;28;20090;-65
2024/03/28 01:38:54;;;;;;;2.63;2.22;;;9.10;85.00;;;;;;5067754;28;20386;-66
2024/03/28 01:41:19;;;;;;;3.28;2.50;;;9.10;85.10;;;;;;5067935;28;20077;-66
2024/03/28 01:43:45;;;;;;;3.60;2.80;;;9.00;85.20;;;;;;5069374;28;20082;-66
2024/03/28 01:46:16;;;;;;;3.67;2.83;;;8.90;85.40;;;;;;5068132;28;20028;-65
2024/03/28 01:48:42;;;;;;;3.30;2.35;;;8.90;85.60;;;;;;5066993;28;20025;-66
2024/03/28 01:51:09;;;;;;;3.75;2.83;;;8.90;85.60;;;;;;5068008;28;20301;-66
2024/03/28 01:53:35;;;;;;;4.22;2.58;;;8.80;85.70;;;;;;5067779;28;20028;-65
2024/03/28 01:56:01;;;;;;;2.60;2.10;;;8.80;85.70;;;;;;5064247;28;20043;-64
2024/03/28 01:58:27;;;;;;;2.08;1.88;;;8.80;85.80;;;;;;5066545;28;20691;-65
2024/03/28 02:00:53;;;;;;;4.90;2.88;;;8.80;85.80;;;;;;5067417;28;20146;-64
2024/03/28 02:03:19;;;;;;;3.58;2.53;;;8.80;85.80;;;;;;5069470;28;20028;-65
2024/03/28 02:05:45;;;;;;;3.40;2.20;;;8.80;85.90;;;;;;5068762;28;20020;-66
2024/03/28 02:08:11;;;;;;;3.33;2.30;;;8.80;85.90;;;;;;5068835;28;20024;-66
2024/03/28 02:10:38;;;;;;;3.03;2.22;;;8.80;85.90;;;;;;5068201;28;20532;-66
2024/03/28 02:13:04;;;;;;;3.65;2.35;;;8.80;85.90;;;;;;5067957;28;20479;-66
2024/03/28 02:15:29;;;;;;;3.25;2.30;;;8.80;85.90;;;;;;5067350;28;20024;-65
2024/03/28 02:17:56;;;;;;;2.83;2.40;;;8.80;86.00;;;;;;5068229;28;20067;-66
2024/03/28 02:20:22;;;;;;;3.00;2.25;;;8.80;86.00;;;;;;5067276;28;20032;-64
2024/03/28 02:22:47;;;;;;;3.28;2.22;;;8.80;86.00;;;;;;5066562;28;20024;-66
2024/03/28 02:25:13;;;;;;;3.15;2.30;;;8.80;85.90;;;;;;5067629;28;20040;-66
2024/03/28 02:27:40;;;;;;;3.63;2.80;;;8.70;85.80;;;;;;5068726;28;20097;-65
2024/03/28 02:30:10;;;;;;;3.03;2.40;;;8.70;85.90;;;;;;5065499;28;20020;-65
2024/03/28 02:32:35;;;;;;;5.05;3.15;;;8.80;85.90;;;;;;5065547;28;20031;-66
2024/03/28 02:35:03;;;;;;;4.00;2.50;;;8.70;86.00;;;;;;5067980;28;20024;-65
2024/03/28 02:37:29;;;;;;;2.78;2.17;;;8.70;86.00;;;;;;5067415;28;20021;-65
2024/03/28 02:39:55;;;;;;;3.10;2.15;;;8.80;85.90;;;;;;5067776;28;20474;-65
2024/03/28 02:42:21;;;;;;;2.30;1.90;;;8.80;85.90;;;;;;5066342;28;20142;-65
2024/03/28 02:44:46;;;;;;;5.15;2.25;;;8.80;85.80;;;;;;5066917;28;20050;-66
2024/03/28 02:47:12;;;;;;;2.92;2.15;;;8.80;85.70;;;;;;5065120;28;20301;-66
2024/03/28 02:49:37;;;;;;;3.67;2.58;;;8.80;85.70;;;;;;5069282;28;20043;-65
2024/03/28 02:52:03;;;;;;;2.55;1.90;;;8.80;85.80;;;;;;5065571;28;20045;-65
2024/03/28 02:54:30;;;;;;;2.97;1.98;;;8.80;85.80;;;;;;5066912;28;20386;-65
2024/03/28 02:57:01;;;;;;;2.05;1.70;;;8.90;85.80;;;;;;5067759;28;20026;-65
2024/03/28 02:59:26;;;;;;;1.83;1.63;;;8.90;85.60;;;;;;5070159;28;20544;-65
2024/03/28 03:01:52;;;;;;;2.80;2.08;;;8.90;85.60;;;;;;5070868;28;20025;-65
2024/03/28 03:04:17;;;;;;;2.03;1.70;;;8.90;86.20;;;;;;5071815;28;20376;-65
2024/03/28 03:06:43;;;;;;;2.13;1.80;;;8.90;86.20;;;;;;5069100;28;20461;-64
2024/03/28 03:09:08;;;;;;;2.75;1.88;;;8.90;85.70;;;;;;5071492;28;20025;-65
2024/03/28 03:11:34;;;;;;;2.25;1.85;;;8.90;85.70;;;;;;5070513;28;20021;-65
2024/03/28 03:13:59;;;;;;;2.92;2.30;;;8.80;85.60;;;;;;5072853;28;20108;-64
2024/03/28 03:16:25;;;;;;;2.72;2.30;;;8.80;85.80;;;;;;5069017;28;20025;-65
2024/03/28 03:18:51;;;;;;;3.40;2.40;;;8.80;85.90;;;;;;5071190;28;20028;-64
2024/03/28 03:21:17;;;;;;;3.55;2.47;;;8.70;86.00;;;;;;5072868;28;20052;-64
2024/03/28 03:23:48;;;;;;;2.90;2.13;;;8.70;86.10;;;;;;5076382;28;20462;-64
2024/03/28 03:26:20;;;;;;;3.17;2.42;;;8.70;86.10;;;;;;5067908;28;20475;-64
2024/03/28 03:36:58;;;;;;;2.75;2.30;;;8.70;86.20;;;;;;5074569;28;20035;-66
2024/03/28 03:39:24;;;;;;;2.97;2.47;;;8.70;86.20;;;;;;5073316;28;20029;-66
2024/03/28 03:41:50;;;;;;;3.30;2.40;;;8.70;86.30;;;;;;5076490;28;20114;-63
2024/03/28 03:44:15;;;;;;;2.72;2.20;;;8.70;86.30;;;;;;5081701;28;20020;-65
2024/03/28 03:46:41;;;;;;;3.72;2.70;;;8.70;86.30;;;;;;5068488;28;20475;-65
2024/03/28 03:49:06;;;;;;;3.80;2.65;;;8.70;86.40;;;;;;5071725;28;20012;-64
2024/03/28 03:51:33;;;;;;;3.08;2.55;;;8.60;86.50;;;;;;5071099;28;20028;-64
2024/03/28 03:53:58;;;;;;;2.67;2.42;;;8.60;86.40;;;;;;5075516;28;20372;-64
2024/03/28 03:56:25;;;;;;;3.25;2.28;;;8.60;86.50;;;;;;5071991;28;20040;-65
2024/03/28 03:58:50;;;;;;;3.08;2.20;;;8.70;86.50;;;;;;5075153;28;20414;-65
2024/03/28 04:01:17;;;;;;;3.47;1.85;;;8.60;86.50;;;;;;5074837;28;20040;-66
2024/03/28 04:03:43;;;;;;;2.88;2.30;;;8.60;86.40;;;;;;5070889;28;20029;-65
2024/03/28 04:06:10;;;;;;;3.10;2.40;;;8.60;86.50;;;;;;5073640;28;20519;-65
2024/03/28 04:08:36;;;;;;;3.35;2.50;;;8.60;86.50;;;;;;5077061;28;20048;-66
2024/03/28 04:11:02;;;;;;;3.05;2.20;;;8.50;86.60;;;;;;5077088;28;20540;-65
2024/03/28 04:13:28;;;;;;;3.03;2.20;;;8.50;86.50;;;;;;5078335;28;20027;-66
2024/03/28 04:15:53;;;;;;;3.67;1.90;;;8.50;86.50;;;;;;5068964;28;20035;-66
2024/03/28 04:18:19;;;;;;;3.30;2.10;;;8.50;86.60;;;;;;5079222;28;20104;-66
2024/03/28 04:20:45;;;;;;;3.30;2.10;;;8.50;86.60;;;;;;5072251;28;20491;-66
2024/03/28 04:23:12;;;;;;;2.58;2.00;;;8.50;86.60;;;;;;5076261;28;20451;-66
2024/03/28 04:25:37;;;;;;;3.20;2.60;;;8.50;86.50;;;;;;5075880;28;20024;-66
2024/03/28 04:28:03;;;;;;;2.92;2.10;;;8.50;86.50;;;;;;5075351;28;20435;-66
2024/03/28 04:30:33;;;;;;;2.55;2.10;;;8.50;86.50;;;;;;5071083;28;20027;-66
2024/03/28 04:32:59;;;;;;;2.90;2.20;;;8.50;86.50;;;;;;5069271;28;20013;-65
2024/03/28 04:35:25;;;;;;;3.35;2.28;;;8.50;86.50;;;;;;5072088;28;20024;-66
2024/03/28 04:37:52;;;;;;;3.92;2.60;;;8.40;87.10;;;;;;5071084;28;20027;-65
2024/03/28 04:40:18;;;;;;;2.80;2.13;;;8.40;86.60;;;;;;5083217;28;20428;-63
2024/03/28 04:42:50;;;;;;;2.97;1.98;;;8.40;86.60;;;;;;5075357;28;20099;-65
2024/03/28 04:45:17;;;;;;;2.97;2.22;;;8.40;86.60;;;;;;5069838;28;20024;-65
2024/03/28 04:47:47;;;;;;;3.80;2.70;;;8.40;86.60;;;;;;5073996;28;20042;-65
2024/03/28 04:50:13;;;;;;;3.35;2.25;;;8.40;86.70;;;;;;5078541;28;20385;-65
2024/03/28 04:52:39;;;;;;;3.88;2.55;;;8.30;86.80;;;;;;5068778;28;20432;-63
2024/03/28 04:55:06;;;;;;;4.35;2.40;;;8.30;86.80;;;;;;5081521;28;20266;-66
2024/03/28 04:57:32;;;;;;;3.80;2.65;;;8.40;86.80;;;;;;5071186;28;20471;-65
2024/03/28 04:59:58;;;;;;;3.92;2.83;;;8.30;86.80;;;;;;5070775;28;20016;-66
2024/03/28 05:02:23;;;;;;;4.60;3.03;;;8.30;86.80;;;;;;5065495;28;20032;-65
2024/03/28 05:04:49;;;;;;;3.53;2.50;;;8.30;86.80;;;;;;5072913;28;20031;-64
2024/03/28 05:07:15;;;;;;;3.50;2.45;;;8.30;86.80;;;;;;5068773;28;20043;-65
2024/03/28 05:09:40;;;;;;;3.75;2.50;;;8.30;86.80;;;;;;5078071;28;20112;-63
2024/03/28 05:12:06;;;;;;;4.20;2.92;;;8.30;86.80;;;;;;5072104;28;20059;-63
2024/03/28 05:14:32;;;;;;;4.45;3.10;;;8.30;86.90;;;;;;5070882;28;20077;-63
2024/03/28 05:16:59;;;;;;;5.53;3.70;;;8.20;87.20;;;;;;5073024;28;20024;-63
2024/03/28 05:19:25;;;;;;;5.00;3.17;;;8.20;87.40;;;;;;5074968;28;20058;-65
2024/03/28 05:21:51;;;;;;;6.50;3.80;;;8.10;87.30;;;;;;5070170;28;20029;-64
2024/03/28 05:24:17;;;;;;;6.53;4.00;;;8.10;87.60;;;;;;5075961;28;20398;-64
2024/03/28 05:26:42;;;;;;;5.45;3.17;;;8.10;87.60;;;;;;5078671;28;20066;-65
2024/03/28 05:29:08;;;;;;;4.28;3.10;;;8.10;87.60;;;;;;5075864;28;20016;-65
2024/03/28 05:31:33;;;;;;;4.93;3.10;;;8.10;87.60;;;;;;5068990;28;20021;-67
2024/03/28 05:33:59;;;;;;;3.83;2.45;;;8.10;87.70;;;;;;5065456;28;20028;-66
2024/03/28 05:36:25;;;;;;;4.07;2.80;;;8.10;87.70;;;;;;5066128;28;20082;-65
2024/03/28 05:38:51;;;;;;;4.13;3.00;;;8.10;87.80;;;;;;5069125;28;20029;-65
2024/03/28 05:41:16;;;;;;;4.50;3.33;;;8.10;87.70;;;;;;5075930;28;20487;-65
2024/03/28 05:43:43;;;;;;;3.65;2.67;;;8.00;87.80;;;;;;5067471;28;20053;-65
2024/03/28 05:46:09;;;;;;;5.15;3.38;;;8.10;88.40;;;;;;5072525;28;20123;-65
2024/03/28 05:48:34;;;;;;;4.35;2.70;;;8.10;87.80;;;;;;5071425;28;20055;-65
2024/03/28 05:51:00;;;;;;;4.75;3.20;;;8.10;87.70;;;;;;5079153;28;20028;-65
2024/03/28 05:53:26;;;;;;;3.83;2.75;;;8.10;87.70;;;;;;5065148;28;20032;-66
2024/03/28 05:55:51;;;;;;;4.63;3.00;;;8.10;87.80;;;;;;5071953;28;20019;-66
2024/03/28 05:58:17;;;;;;;4.68;3.10;;;8.10;87.70;;;;;;5077018;28;20067;-66
2024/03/28 06:00:42;;;;;;;3.10;2.67;;;8.10;87.80;;;;;;5076413;28;20426;-65
2024/03/28 06:03:08;;;;;;;3.60;2.58;;;8.20;87.70;;;;;;5077434;28;20468;-66
2024/03/28 06:05:33;;;;;;;4.65;2.50;;;8.40;87.50;;;;;;5075223;28;20155;-65
2024/03/28 06:07:59;;;;;;;3.33;2.58;;;8.40;87.10;;;;;;5074743;28;20024;-64
2024/03/28 06:10:25;;;;;;;3.42;2.50;;;8.40;86.90;;;;;;5075734;28;20025;-66
2024/03/28 06:12:51;;;;;;;2.97;2.00;;;8.50;86.90;;;;;;5077024;28;20073;-67
2024/03/28 06:15:16;;;;;;;3.72;2.40;;;8.50;86.60;;;;;;5066274;28;20062;-65
2024/03/28 06:17:42;;;;;;;2.90;2.28;;;8.50;86.50;;;;;;5077783;28;20029;-65
2024/03/28 06:20:08;;;;;;;3.15;2.17;;;8.50;86.60;;;;;;5076263;28;20483;-68
2024/03/28 06:22:33;;;;;;;4.07;2.55;;;8.40;86.70;;;;;;5075116;28;20756;-67
2024/03/28 06:24:59;;;;;;;3.17;2.30;;;8.40;86.70;;;;;;5068952;28;20039;-67
2024/03/28 06:27:25;;;;;;;3.00;2.13;;;8.50;86.80;;;;;;5069683;28;20074;-65
2024/03/28 06:29:51;;;;;;;2.45;2.17;;;8.50;86.80;;;;;;5073741;28;20095;-65
2024/03/28 06:32:24;;;;;;;2.92;2.30;;;8.50;86.80;;;;;;5072110;28;20021;-68
2024/03/28 06:34:58;;;;;;;4.75;3.00;;;8.50;86.80;;;;;;5073778;28;20482;-67
2024/03/28 06:37:24;;;;;;;3.55;2.40;;;8.50;86.80;;;;;;5085576;28;20094;-65
2024/03/28 06:39:50;;;;;;;3.42;2.25;;;8.50;86.70;;;;;;5076107;28;20039;-68
2024/03/28 06:42:16;;;;;;;5.20;2.92;;;8.60;86.70;;;;;;5067289;28;20020;-66
2024/03/28 06:44:47;;;;;;;3.88;2.70;;;8.60;86.60;;;;;;5080798;28;20119;-66
2024/03/28 06:47:12;;;;;;;4.23;2.97;;;8.70;86.50;;;;;;5071035;28;20021;-65
2024/03/28 06:49:38;;;;;;;5.25;2.92;;;8.80;86.50;;;;;;5071676;28;20418;-65
2024/03/28 06:52:05;;;;;;;5.35;3.42;;;8.90;86.40;;;;;;5067922;28;20364;-65
2024/03/28 06:54:30;;;;;;;4.75;3.00;;;9.00;86.10;;;;;;5075959;28;20074;-66
2024/03/28 06:56:56;;;;;;;4.53;3.47;;;9.20;85.90;;;;;;5074869;28;20032;-66
2024/03/28 06:59:21;;;;;;;4.07;2.63;;;9.30;85.10;;;;;;5077598;28;20036;-66
2024/03/28 07:01:47;;;;;;;4.15;2.75;;;9.30;85.00;;;;;;5078303;28;20094;-65
2024/03/28 07:04:12;;;;;;;6.32;3.08;;;9.40;85.10;;;;;;5073781;28;20039;-65
2024/03/28 07:06:38;;;;;;;3.92;2.83;;;9.60;84.80;;;;;;5061522;28;20028;-66
2024/03/28 07:09:04;;;;;;;3.25;2.20;;;9.70;84.00;;;;;;5070586;28;20028;-65
2024/03/28 07:11:29;;;;;;;4.60;3.40;;;9.60;83.80;;;;;;5076038;28;20020;-65
2024/03/28 07:13:55;;;;;;;3.15;2.25;;;9.60;83.80;;;;;;5073354;28;20024;-65
2024/03/28 07:16:21;;;;;;;3.40;2.53;;;9.70;83.90;;;;;;5068261;28;20025;-66
2024/03/28 07:18:46;;;;;;;3.35;2.45;;;9.60;84.00;;;;;;5074686;28;20028;-66
2024/03/28 07:21:12;;;;;;;3.58;2.42;;;9.60;84.10;;;;;;5066407;28;20471;-65
2024/03/28 07:23:43;;;;;;;3.20;2.20;;;9.60;84.30;;;;;;5067688;28;20047;-64
2024/03/28 07:26:09;;;;;;;2.45;2.08;;;9.70;84.20;;;;;;5073866;28;20043;-65
2024/03/28 07:28:34;;;;;;;2.08;1.80;;;9.70;84.00;;;;;;5068945;28;20020;-66
2024/03/28 07:31:00;;;;;;;2.13;1.73;;;9.70;84.10;;;;;;5072366;28;20565;-64
2024/03/28 07:33:25;;;;;;;2.85;1.95;;;9.80;84.00;;;;;;5068916;28;20091;-66
2024/03/28 07:35:51;;;;;;;3.50;2.30;;;9.90;83.70;;;;;;5069780;28;20033;-66
2024/03/28 07:38:17;;;;;;;2.60;2.10;;;9.90;83.50;;;;;;5067484;28;20032;-66
2024/03/28 07:40:50;;;;;;;2.75;2.10;;;9.90;83.80;;;;;;5069927;28;20147;-66
2024/03/28 07:43:17;;;;;;;3.97;2.28;;;10.00;83.60;;;;;;5067147;28;20031;-65
2024/03/28 07:45:43;;;;;;;3.58;2.30;;;10.10;83.40;;;;;;5069689;28;20028;-64
2024/03/28 07:48:10;;;;;;;3.10;2.38;;;10.10;83.30;;;;;;5070893;28;20029;-65
2024/03/28 07:50:36;;;;;;;2.72;2.30;;;10.20;83.30;;;;;;5070594;28;20060;-65
2024/03/28 07:53:02;;;;;;;2.50;2.10;;;10.10;82.70;;;;;;5079519;28;20016;-65
2024/03/28 07:55:28;;;;;;;2.55;1.80;;;10.10;82.80;;;;;;5073211;28;20364;-66
2024/03/28 07:57:53;;;;;;;4.40;2.58;;;10.10;82.80;;;;;;5081172;28;20575;-65
2024/03/28 08:00:21;;;;;;;2.67;2.13;;;10.10;82.70;;;;;;5071966;28;20042;-66
2024/03/28 08:02:48;;;;;;;3.00;2.40;;;10.10;82.50;;;;;;5076280;28;20063;-65
2024/03/28 08:05:15;;;;;;;4.20;2.47;;;10.10;82.30;;;;;;5069639;28;20035;-64
2024/03/28 08:07:41;;;;;;;4.03;2.75;;;10.10;82.30;;;;;;5063957;28;20032;-66
2024/03/28 08:10:09;;;;;;;2.65;2.30;;;10.00;82.00;;;;;;5065394;28;20032;-67
2024/03/28 08:12:39;;;;;;;2.90;2.35;;;10.00;81.90;;;;;;5071179;28;20025;-66
2024/03/28 08:15:05;;;;;;;3.70;2.17;;;10.00;81.80;;;;;;5073851;28;20123;-64
2024/03/28 08:17:33;;;;;;;2.78;1.83;;;10.00;82.00;;;;;;5068037;28;20052;-67
2024/03/28 08:20:00;;;;;;;3.65;2.30;;;10.00;82.00;;;;;;5063165;28;20029;-66
2024/03/28 08:22:26;;;;;;;3.15;2.15;;;10.00;81.90;;;;;;5069034;28;21080;-64
2024/03/28 08:24:52;;;;;;;2.78;2.05;;;10.00;82.00;;;;;;5069262;28;20037;-65
2024/03/28 08:27:17;;;;;;;2.05;1.85;;;10.00;81.70;;;;;;5070644;28;20029;-65
2024/03/28 08:29:44;;;;;;;2.55;1.85;;;10.00;81.70;;;;;;5065148;28;20044;-65
2024/03/28 08:32:10;;;;;;;2.05;1.73;;;10.00;81.70;;;;;;5058481;28;20024;-66
2024/03/28 08:34:36;;;;;;;2.92;2.00;;;10.00;81.80;;;;;;5066656;28;20182;-65
2024/03/28 08:37:02;;;;;;;2.15;1.90;;;9.90;81.70;;;;;;5063629;28;20025;-66
2024/03/28 08:39:28;;;;;;;2.17;1.83;;;9.80;82.00;;;;;;5062857;28;20038;-66
2024/03/28 08:41:53;;;;;;;2.42;1.80;;;9.80;82.20;;;;;;5062830;28;20147;-65
2024/03/28 08:44:19;;;;;;;2.15;1.70;;;9.70;82.40;;;;;;5059377;28;20040;-65
2024/03/28 08:46:45;;;;;;;2.90;1.98;;;9.70;82.50;;;;;;5064094;28;20078;-65
2024/03/28 08:49:11;;;;;;;2.17;1.70;;;9.70;82.70;;;;;;5069797;28;20013;-65
2024/03/28 08:51:37;;;;;;;1.70;1.45;;;9.70;82.90;;;;;;5063658;28;20063;-67
2024/03/28 08:54:05;;;;;;;2.08;1.85;;;9.60;83.20;;;;;;5055479;28;20111;-66
2024/03/28 08:56:35;;;;;;;2.05;1.60;;;9.70;83.20;;;;;;5064633;28;20032;-67
2024/03/28 08:59:02;;;;;;;2.90;2.10;;;9.70;83.50;;;;;;5062968;28;20028;-67
2024/03/28 09:01:27;;;;;;;2.08;1.80;;;9.60;83.70;;;;;;5061890;28;20037;-66
2024/03/28 09:03:53;;;;;;;1.95;1.50;;;9.50;84.00;;;;;;5062241;28;20490;-68
2024/03/28 09:06:20;;;;;;;1.95;1.40;;;9.60;84.10;;;;;;5066853;28;20054;-69
2024/03/28 09:08:46;;;;;;;1.73;1.40;;;9.60;84.10;;;;;;5058328;28;20037;-67
2024/03/28 09:11:12;;;;;;;2.50;1.42;;;9.60;84.20;;;;;;5061339;28;20051;-67
2024/03/28 09:13:39;;;;;;;2.20;1.50;;;9.60;84.30;;;;;;5064825;28;20117;-68
2024/03/28 09:16:08;;;;;;;3.50;1.70;;;9.60;84.30;;;;;;5063661;28;20613;-66
2024/03/28 09:18:35;;;;;;;1.40;1.13;;;9.60;84.60;;;;;;5065986;28;20103;-67
2024/03/28 09:21:01;;;;;;;1.80;1.20;;;9.60;84.70;;;;;;5064846;28;20486;-67
2024/03/28 09:23:27;;;;;;;1.55;1.45;;;9.60;84.70;;;;;;5058485;28;20027;-67
2024/03/28 09:25:52;;;;;;;1.50;1.40;;;9.60;84.70;;;;;;5062642;28;20032;-66
2024/03/28 09:28:18;;;;;;;1.52;1.40;;;9.60;84.80;;;;;;5063832;28;20524;-67
2024/03/28 09:30:44;;;;;;;2.80;1.63;;;9.60;85.00;;;;;;5058328;28;20019;-66
2024/03/28 09:33:10;;;;;;;1.50;1.40;;;9.50;85.20;;;;;;5063656;28;20425;-66
2024/03/28 09:35:36;;;;;;;2.13;1.63;;;9.50;85.40;;;;;;5065798;28;20052;-67
2024/03/28 09:38:02;;;;;;;1.75;1.42;;;9.40;85.80;;;;;;5064775;28;20075;-66
2024/03/28 09:40:30;;;;;;;1.58;1.30;;;9.40;85.90;;;;;;5058154;28;20032;-67
2024/03/28 09:42:56;;;;;;;1.55;1.30;;;9.50;86.00;;;;;;5064877;28;20025;-66
2024/03/28 09:45:27;;;;;;;2.63;1.50;;;9.50;86.00;;;;;;5062010;28;20024;-67
2024/03/28 09:47:54;;;;;;;2.50;1.60;;;9.40;86.10;;;;;;5068608;28;20055;-67
2024/03/28 09:50:23;;;;;;;2.33;1.63;;;9.30;86.60;;;;;;5061464;28;20029;-67
2024/03/28 09:52:52;;;;;;;1.60;1.50;;;9.30;86.90;;;;;;5067365;28;20031;-68
2024/03/28 09:55:19;;;;;;;1.70;1.30;;;9.40;86.90;;;;;;5064643;28;20390;-67
2024/03/28 09:57:44;;;;;;;1.33;1.10;;;9.40;86.90;;;;;;5056358;28;20468;-68
2024/03/28 10:00:12;;;;;;;1.40;1.30;;;9.50;86.80;;;;;;5058898;28;20052;-69
2024/03/28 10:02:53;;;;;;;1.73;1.50;;;9.50;86.80;;;;;;5060620;28;20422;-66
2024/03/28 10:05:19;;;;;;;1.80;1.42;;;9.50;87.00;;;;;;5059868;28;20082;-67
2024/03/28 10:07:48;;;;;;;2.47;1.83;;;9.40;87.40;;;;;;5063438;28;20120;-67
2024/03/28 10:10:14;;;;;;;1.83;1.55;;;9.30;87.80;;;;;;5068516;28;20056;-67
2024/03/28 10:12:58;;;;;;;1.40;1.30;;;9.40;87.90;;;;;;5066108;28;20518;-68
2024/03/28 10:15:24;;;;;;;1.50;1.40;;;9.40;87.70;;;;;;5067594;28;20350;-68
2024/03/28 10:18:05;;;;;;;1.75;1.40;;;9.40;87.80;;;;;;5068201;28;20132;-68
2024/03/28 10:20:31;;;;;;;1.35;1.20;;;9.40;88.00;;;;;;5065769;28;20655;-69
2024/03/28 10:22:57;;;;;;;1.45;1.20;;;9.40;88.20;;;;;;5062035;28;20433;-67
2024/03/28 10:25:24;;;;;;;2.58;1.30;;;9.40;88.20;;;;;;5064669;28;20126;-67
2024/03/28 10:27:50;;;;;;;2.88;1.70;;;9.40;88.20;;;;;;5063489;28;20371;-67
2024/03/28 10:30:24;;;;;;;2.35;2.10;;;9.40;88.70;;;;;;5069716;28;20166;-68
2024/03/28 10:33:02;;;;;;;2.20;1.70;;;9.30;89.20;;;;;;5064772;28;20020;-67
2024/03/28 10:35:28;;;;;;;2.22;1.67;;;9.30;89.30;;;;;;5068648;28;20027;-68
2024/03/28 10:38:20;;;;;;;1.45;1.35;;;9.30;89.40;;;;;;5065658;28;20040;-67
2024/03/28 10:40:48;;;;;;;1.23;1.13;;;9.30;89.50;;;;;;5057345;28;20406;-67
2024/03/28 10:43:15;;;;;;;1.38;1.25;;;9.30;89.60;;;;;;5063998;28;20017;-68
2024/03/28 10:45:42;;;;;;;1.63;1.10;;;9.20;89.70;;;;;;5063549;28;20072;-66
2024/03/28 10:48:18;;;;;;;1.30;1.20;;;9.30;89.80;;;;;;5067226;28;20553;-68
2024/03/28 10:51:15;;;;;;;1.55;1.05;;;9.20;89.90;;;;;;5062323;28;20498;-67
2024/03/28 10:53:43;;;;;;;1.20;1.17;;;9.20;89.90;;;;;;5060074;28;20048;-66
2024/03/28 10:56:14;;;;;;;1.33;1.10;;;9.30;89.90;;;;;;5067086;28;20509;-67
2024/03/28 10:58:40;;;;;;;1.15;1.10;;;9.30;90.20;;;;;;5069009;28;20039;-67
2024/03/28 11:01:07;;;;;;;0.85;0.80;;;9.30;89.90;;;;;;5078880;28;20479;-66
2024/03/28 11:03:34;;;;;;;1.20;0.82;;;9.30;89.70;;;;;;5067875;28;20024;-65
2024/03/28 11:05:59;;;;;;;1.05;1.02;;;9.40;90.10;;;;;;5068590;28;20394;-65
2024/03/28 11:08:28;;;;;;;1.05;1.00;;;9.40;89.50;;;;;;5069427;28;20012;-66
2024/03/28 11:10:58;;;;;;;0.85;0.80;;;9.40;89.60;;;;;;5065003;28;20017;-66
2024/03/28 11:13:24;;;;;;;0.75;0.75;;;9.50;89.50;;;;;;5068035;28;20009;-66
2024/03/28 11:16:03;;;;;;;2.22;1.23;;;9.50;89.40;;;;;;5063825;28;20028;-64
2024/03/28 11:18:30;;;;;;;1.10;1.00;;;9.60;89.50;;;;;;5071077;28;20476;-68
2024/03/28 11:20:55;;;;;;;1.75;1.20;;;9.60;89.40;;;;;;5071865;28;20021;-65
2024/03/28 11:23:21;;;;;;;1.73;1.10;;;9.70;89.30;;;;;;5071161;28;20453;-64
2024/03/28 11:25:47;;;;;;;1.40;1.10;;;9.80;89.20;;;;;;5069296;28;20043;-65
2024/03/28 11:28:14;;;;;;;1.30;1.20;;;9.80;89.10;;;;;;5069554;28;20020;-65
2024/03/28 11:30:51;;;;;;;1.15;1.05;;;9.80;89.10;;;;;;5069532;28;20028;-65
2024/03/28 11:33:31;;;;;;;1.20;1.10;;;9.80;89.10;;;;;;5069829;28;20100;-65
2024/03/28 11:35:58;;;;;;;1.30;0.90;;;9.90;89.20;;;;;;5073764;28;20028;-65
2024/03/28 11:38:24;;;;;;;1.38;1.00;;;9.90;89.30;;;;;;5071816;28;20107;-66
2024/03/28 11:40:51;;;;;;;1.80;1.40;;;9.90;89.40;;;;;;5066237;28;20155;-66
2024/03/28 11:43:19;;;;;;;1.90;1.70;;;10.00;89.30;;;;;;5064669;28;20028;-65
2024/03/28 11:46:01;;;;;;;2.92;1.73;;;10.00;89.20;;;;;;5062593;28;20166;-65
2024/03/28 11:48:33;;;;;;;2.63;2.03;;;10.00;89.30;;;;;;5070530;28;20406;-65
2024/03/28 11:51:03;;;;;;;2.20;1.73;;;10.10;89.40;;;;;;5069519;28;20033;-65
2024/03/28 11:53:29;;;;;;;2.97;1.63;;;10.10;89.30;;;;;;5071628;28;20024;-64
2024/03/28 11:55:54;;;;;;;1.83;1.33;;;10.20;89.30;;;;;;5075221;28;20069;-64
2024/03/28 11:58:23;;;;;;;1.90;1.52;;;10.30;89.20;;;;;;5070659;28;20432;-65
2024/03/28 12:00:55;;;;;;;1.95;1.60;;;10.40;89.00;;;;;;5069054;28;20025;-65
2024/03/28 12:03:21;;;;;;;2.97;1.35;;;10.50;88.90;;;;;;5067938;28;20099;-65
2024/03/28 12:05:49;;;;;;;3.72;1.70;;;10.50;88.80;;;;;;5068106;28;20116;-64
2024/03/28 12:08:17;;;;;;;2.13;1.80;;;10.60;88.70;;;;;;5071491;28;20153;-65
2024/03/28 12:10:43;;;;;;;2.92;1.90;;;10.60;88.50;;;;;;5066163;28;20024;-66
2024/03/28 12:13:09;;;;;;;2.03;1.67;;;10.70;88.40;;;;;;5072488;28;20486;-66
2024/03/28 12:15:37;;;;;;;1.90;1.55;;;10.80;88.20;;;;;;5068693;28;20032;-67
2024/03/28 12:18:03;;;;;;;2.38;2.00;;;11.00;88.00;;;;;;5072523;28;20112;-65
2024/03/28 12:20:30;;;;;;;3.35;1.70;;;11.10;87.60;;;;;;5072215;28;20032;-65
2024/03/28 12:22:57;;;;;;;3.35;1.70;;;11.20;87.20;;;;;;5069854;28;20028;-65
2024/03/28 12:25:23;;;;;;;3.25;2.03;;;11.30;86.80;;;;;;5066514;28;20063;-65
2024/03/28 12:27:57;;;;;;;3.22;1.60;;;11.40;86.20;;;;;;5074675;28;20079;-64
2024/03/28 12:30:23;;;;;;;1.55;1.33;;;11.60;86.10;;;;;;5060455;28;20634;-67
2024/03/28 12:32:59;;;;;;;3.30;2.00;;;11.80;85.40;;;;;;5074156;28;20013;-66
2024/03/28 12:35:29;;;;;;;2.97;1.88;;;11.90;84.80;;;;;;5068267;28;20024;-65
2024/03/28 12:37:56;;;;;;;2.55;1.77;;;11.90;84.40;;;;;;5071737;28;20036;-66
2024/03/28 12:40:26;;;;;;;3.08;2.13;;;12.00;84.20;;;;;;5068918;28;20025;-66
2024/03/28 12:42:52;;;;;;;4.22;2.70;;;12.10;83.80;;;;;;5069103;28;20029;-66
2024/03/28 12:45:19;;;;;;;2.00;1.80;;;12.10;83.50;;;;;;5068236;28;20017;-65
2024/03/28 12:47:48;;;;;;;2.88;2.55;;;12.20;83.50;;;;;;5064875;28;20029;-67
2024/03/28 12:50:17;;;;;;;3.03;2.28;;;12.30;82.90;;;;;;5075144;28;20024;-66
2024/03/28 12:52:51;;;;;;;3.25;2.00;;;12.40;82.50;;;;;;5068053;28;20040;-66
2024/03/28 12:55:17;;;;;;;2.17;1.80;;;12.40;82.40;;;;;;5074962;28;20021;-66
2024/03/28 12:57:44;;;;;;;3.70;2.20;;;12.50;82.30;;;;;;5066829;28;20483;-66
2024/03/28 13:00:11;;;;;;;2.97;1.80;;;12.60;81.70;;;;;;5067692;28;20511;-66
2024/03/28 13:02:37;;;;;;;2.05;1.40;;;12.70;81.80;;;;;;5068530;28;20118;-66